Aérodrome :
LOGIN :

S'inscrire | Disclaimer

   EN    FR    IT 

 










Légende :    VFR   VFR Marginal   IFR   IFR Intensif   IFR Très Intensif
Visi : 
Plafond : 
>= 8 km
>= 3000ft
5 à 8 km
1000 à 3000 ft
1500m à 5 km
500 à 1000 ft
800 à 1500m
200 à 500 ft
< 800m
< 200 ft
Symboles :   Orages  Brouillard  Fortes neiges  Fortes précipitations  Vent > 20 kt
SIGMETs :   Divers  Orages  Givrage  Turbulence  Onde Orograph.  Cendres Volcan.







- Altitude de l'aérodrome : 42 ft
- Code IATA : KGD


UMKK - Khrabrava - Kaliningrad

DERNIER METAR :
  • 191230Z 25005MPS 9999 FEW030 24/15 Q1019 R24/CLRD60 NOSIG RMK QFE763/1017

METARs EXPIRÉS :
  • 191200Z 25005MPS 230V290 9999 FEW030 24/13 Q1019 R24/CLRD60 NOSIG RMK QFE763/1017
  • 191130Z 25006MPS 200V270 9999 SCT029 24/14 Q1019 R24/CLRD60 NOSIG RMK QFE763/1017
  • 191100Z 24005MPS 210V270 9999 SCT027 25/16 Q1019 R24/60D NOSIG RMK QFE763/1017
  • 191030Z 24005MPS 9999 SCT025 24/16 Q1019 R24/60D NOSIG RMK QFE763/1018
  • 191000Z 24005MPS 9999 FEW020 24/15 Q1019 R24/60D NOSIG RMK QFE763/1018

TAF TAF UMKK
Valide du 19 à 12h jusqu'au 20 à 12h UTC


191058Z 1912/2012 26003G08MPS 9999 SCT030
BECMG 1918/1920 18003MPS
TEMPO 1918/2003 3100 BR MIFG
TEMPO 2006/2012 21005MPS



MET'MAP, la Météo Aéronautique d'un coup d'oeil ! - Copyright ORBIFLY Décembre 2007 - Disclaimer

ORBIFLY MET'MAP TEAM :

Programmation & Développement : Alexandra Zaïnal
Conception & Développement : Baudouin d'Aumeries
Co-Programmation & Développement : Marc-Olivier Méhu
Soutien technique & logistique : Manuel Goepfert

Contact : metmap@orbifly.com




SOURCES & CREDITS :

   NOAA